Time;durP1;ratioP1;P1;durP2;ratioP2;P2;SDS_P1;SDS_P2;PMS_P1;PMS_P2;Temp;Humidity;BMP_temperature;BMP_pressure;BME280_temperature;BME280_humidity;BME280_pressure;Samples;Min_cycle;Max_cycle;Signal;HPM_P1;HPM_P2
2022/11/11 00:01:06;;;;;;;;;;;;;;;;;;4978384;28;20013;-79
2022/11/11 00:03:50;;;;;;;;;;;;;;;;;;4964685;28;19914;-79
2022/11/11 00:06:34;;;;;;;;;;;;;;;;;;4974394;28;20289;-80
2022/11/11 00:09:18;;;;;;;;;;;;;;;;;;4980443;28;20048;-79
2022/11/11 00:12:01;;;;;;;;;;;;;;;;;;4980944;28;20229;-80
2022/11/11 00:14:46;;;;;;;;;;;;;;;;;;4981275;28;20370;-79
2022/11/11 00:26:38;;;;;;;;;;;;;;;;;;4977544;28;20001;-80
2022/11/11 00:29:22;;;;;;;;;;;;;;;;;;4978270;28;19981;-81
2022/11/11 00:38:44;;;;;;;;;;;;;;;;;;4966956;28;19918;-79
2022/11/11 00:41:18;;;;;;;;;;;;;;;;;;4976531;28;19914;-79
2022/11/11 00:44:02;;;;;;;;;;;;;;;;;;4975047;28;20298;-79
2022/11/11 00:52:52;;;;;;;;;;;;;;;;;;4976726;28;19937;-80
2022/11/11 00:55:36;;;;;;;;;;;;;;;;;;4976812;28;19978;-80
2022/11/11 00:58:21;;;;;;;;;;;;;;;;;;4977881;28;19914;-80
2022/11/11 01:01:05;;;;;;;;;;;;;;;;;;4977440;28;20065;-80
2022/11/11 01:03:49;;;;;;;;;;;;;;;;;;4963190;28;19914;-80
2022/11/11 01:06:33;;;;;;;;;;;;;;;;;;4977587;28;19925;-80
2022/11/11 01:09:18;;;;;;;;;;;;;;;;;;4966790;28;19914;-80
2022/11/11 01:12:02;;;;;;;;;;;;;;;;;;4978546;28;20012;-80
2022/11/11 01:14:46;;;;;;;;;;;;;;;;;;4978114;28;19914;-80
2022/11/11 01:17:30;;;;;;;;;;;;;;;;;;4977950;28;19918;-80
2022/11/11 01:20:13;;;;;;;;;;;;;;;;;;4978690;28;19914;-80
2022/11/11 01:22:57;;;;;;;;;;;;;;;;;;4977535;28;19921;-80
2022/11/11 01:25:41;;;;;;;;;;;;;;;;;;4960880;28;19918;-80
2022/11/11 01:28:25;;;;;;;;;;;;;;;;;;4976441;28;19921;-79
2022/11/11 01:31:09;;;;;;;;;;;;;;;;;;4977645;28;19918;-82
2022/11/11 01:33:52;;;;;;;;;;;;;;;;;;4974396;28;20174;-80
2022/11/11 01:36:36;;;;;;;;;;;;;;;;;;4967542;28;20277;-79
2022/11/11 01:39:20;;;;;;;;;;;;;;;;;;4975997;28;20445;-79
2022/11/11 01:42:04;;;;;;;;;;;;;;;;;;4975285;28;19920;-79
2022/11/11 01:44:48;;;;;;;;;;;;;;;;;;4975260;28;20314;-79
2022/11/11 01:49:17;;;;;;;;;;;;;;;;;;4960635;28;19918;-79
2022/11/11 01:50:35;;;;;;;;;;;;;;;;;;4975440;28;19957;-79
2022/11/11 01:53:19;;;;;;;;;;;;;;;;;;4974434;28;19914;-79
2022/11/11 01:56:03;;;;;;;;;;;;;;;;;;4974858;28;19914;-79
2022/11/11 01:58:47;;;;;;;;;;;;;;;;;;4975418;28;20130;-79
2022/11/11 02:01:31;;;;;;;;;;;;;;;;;;4977440;28;20586;-79
2022/11/11 02:07:18;;;;;;;;;;;;;;;;;;4975643;28;19925;-79
2022/11/11 02:10:02;;;;;;;;;;;;;;;;;;4975313;28;19918;-80
2022/11/11 02:15:49;;;;;;;;;;;;;;;;;;4976854;28;19921;-79
2022/11/11 02:18:33;;;;;;;;;;;;;;;;;;4975507;28;19914;-79
2022/11/11 02:21:17;;;;;;;;;;;;;;;;;;4977250;28;19922;-79
2022/11/11 02:24:01;;;;;;;;;;;;;;;;;;4975436;28;19915;-79
2022/11/11 02:26:45;;;;;;;;;;;;;;;;;;4977954;28;19925;-79
2022/11/11 02:29:29;;;;;;;;;;;;;;;;;;4978119;28;20386;-80
2022/11/11 02:32:13;;;;;;;;;;;;;;;;;;4966494;28;19920;-79
2022/11/11 02:34:57;;;;;;;;;;;;;;;;;;4975416;28;19921;-80
2022/11/11 02:37:41;;;;;;;;;;;;;;;;;;4966977;28;19937;-79
2022/11/11 02:40:25;;;;;;;;;;;;;;;;;;4980586;28;20385;-81
2022/11/11 02:43:09;;;;;;;;;;;;;;;;;;4986322;28;19925;-79
2022/11/11 02:45:53;;;;;;;;;;;;;;;;;;4983234;28;20313;-80
2022/11/11 02:48:37;;;;;;;;;;;;;;;;;;4982131;28;20404;-79
2022/11/11 02:51:21;;;;;;;;;;;;;;;;;;4980550;28;19936;-80
2022/11/11 02:54:05;;;;;;;;;;;;;;;;;;4977803;28;19969;-80
2022/11/11 02:57:08;;;;;;;;;;;;;;;;;;4978669;28;19915;-80
2022/11/11 02:59:52;;;;;;;;;;;;;;;;;;4980353;28;19918;-80
2022/11/11 03:02:36;;;;;;;;;;;;;;;;;;4984653;28;19914;-80
2022/11/11 03:05:20;;;;;;;;;;;;;;;;;;4984057;28;19922;-79
2022/11/11 03:08:04;;;;;;;;;;;;;;;;;;4980595;28;20479;-79
2022/11/11 03:10:48;;;;;;;;;;;;;;;;;;4978786;28;20352;-79
2022/11/11 03:13:32;;;;;;;;;;;;;;;;;;4976909;28;19925;-79
2022/11/11 03:19:19;;;;;;;;;;;;;;;;;;4977438;28;19980;-79
2022/11/11 03:22:03;;;;;;;;;;;;;;;;;;4976487;28;19920;-79
2022/11/11 03:27:49;;;;;;;;;;;;;;;;;;4975829;28;19965;-79
2022/11/11 03:30:34;;;;;;;;;;;;;;;;;;4976944;28;19915;-79
2022/11/11 03:33:17;;;;;;;;;;;;;;;;;;4975702;28;19914;-79
2022/11/11 03:36:01;;;;;;;;;;;;;;;;;;4989542;28;19925;-79
2022/11/11 03:38:45;;;;;;;;;;;;;;;;;;4978054;28;20025;-79
2022/11/11 03:41:29;;;;;;;;;;;;;;;;;;4977629;28;19918;-79
2022/11/11 03:44:13;;;;;;;;;;;;;;;;;;4977771;28;19962;-80
2022/11/11 03:46:57;;;;;;;;;;;;;;;;;;4979959;28;19941;-80
2022/11/11 03:49:41;;;;;;;;;;;;;;;;;;4964035;28;19969;-80
2022/11/11 03:52:25;;;;;;;;;;;;;;;;;;4978985;28;19974;-79
2022/11/11 03:55:09;;;;;;;;;;;;;;;;;;4979512;28;20394;-79
2022/11/11 03:57:53;;;;;;;;;;;;;;;;;;4967926;28;19956;-79
2022/11/11 04:00:36;;;;;;;;;;;;;;;;;;4979544;28;19914;-79
2022/11/11 04:12:29;;;;;;;;;;;;;;;;;;4976492;28;19918;-79
2022/11/11 04:18:16;;;;;;;;;;;;;;;;;;4967251;28;19921;-79
2022/11/11 04:25:47;;;;;;;;;;;;;;;;;;4963638;28;19921;-80
2022/11/11 04:27:07;;;;;;;;;;;;;;;;;;4976382;28;20381;-79
2022/11/11 04:29:51;;;;;;;;;;;;;;;;;;4961685;28;19996;-79
2022/11/11 04:32:37;;;;;;;;;;;;;;;;;;4974884;28;19980;-79
2022/11/11 04:35:22;;;;;;;;;;;;;;;;;;4962272;28;19977;-78
2022/11/11 04:41:11;;;;;;;;;;;;;;;;;;4978122;28;19925;-80
2022/11/11 04:46:58;;;;;;;;;;;;;;;;;;4978859;28;19964;-80
2022/11/11 04:49:42;;;;;;;;;;;;;;;;;;4962876;28;20374;-80
2022/11/11 04:52:26;;;;;;;;;;;;;;;;;;4978211;28;19920;-79
2022/11/11 04:58:13;;;;;;;;;;;;;;;;;;4965714;28;20385;-79
2022/11/11 05:00:57;;;;;;;;;;;;;;;;;;4975533;28;19914;-79
2022/11/11 05:03:41;;;;;;;;;;;;;;;;;;4948923;28;19914;-79
2022/11/11 05:09:28;;;;;;;;;;;;;;;;;;4977809;28;19983;-79
2022/11/11 05:12:12;;;;;;;;;;;;;;;;;;4977064;28;19918;-79
2022/11/11 05:21:20;;;;;;;;;;;;;;;;;;4970858;28;19969;-79
2022/11/11 05:27:07;;;;;;;;;;;;;;;;;;4974938;28;20016;-80
2022/11/11 05:29:51;;;;;;;;;;;;;;;;;;4963532;28;19914;-79
2022/11/11 05:32:35;;;;;;;;;;;;;;;;;;4975974;28;19914;-80
2022/11/11 05:35:19;;;;;;;;;;;;;;;;;;4976844;28;19914;-79
2022/11/11 05:38:21;;;;;;;;;;;;;;;;;;4976958;28;19914;-79
2022/11/11 05:41:08;;;;;;;;;;;;;;;;;;4976098;28;20408;-79
2022/11/11 05:43:52;;;;;;;;;;;;;;;;;;4960820;28;19929;-80
2022/11/11 05:46:36;;;;;;;;;;;;;;;;;;4976266;28;19993;-80
2022/11/11 05:49:20;;;;;;;;;;;;;;;;;;4977455;28;20021;-80
2022/11/11 05:52:04;;;;;;;;;;;;;;;;;;4977811;28;20009;-80
2022/11/11 05:54:48;;;;;;;;;;;;;;;;;;4974674;28;19914;-79
2022/11/11 05:57:32;;;;;;;;;;;;;;;;;;4975933;28;19925;-79
2022/11/11 06:00:15;;;;;;;;;;;;;;;;;;4976180;28;19914;-80
2022/11/11 06:02:59;;;;;;;;;;;;;;;;;;4976629;28;19978;-80
2022/11/11 06:05:43;;;;;;;;;;;;;;;;;;4974454;28;19925;-79
2022/11/11 06:08:27;;;;;;;;;;;;;;;;;;4975460;28;19914;-80
2022/11/11 06:11:11;;;;;;;;;;;;;;;;;;4960766;28;19914;-79
2022/11/11 06:13:55;;;;;;;;;;;;;;;;;;4961490;28;19925;-79
2022/11/11 06:16:40;;;;;;;;;;;;;;;;;;4977139;28;19969;-79
2022/11/11 06:19:24;;;;;;;;;;;;;;;;;;4977356;28;19918;-79
2022/11/11 06:22:08;;;;;;;;;;;;;;;;;;4975583;28;20012;-80
2022/11/11 06:26:11;;;;;;;;;;;;;;;;;;4974445;28;19944;-79
2022/11/11 06:27:55;;;;;;;;;;;;;;;;;;4956592;28;19914;-79
2022/11/11 06:30:39;;;;;;;;;;;;;;;;;;4967737;28;19919;-79
2022/11/11 06:33:23;;;;;;;;;;;;;;;;;;4973499;28;19918;-79
2022/11/11 06:36:07;;;;;;;;;;;;;;;;;;4989182;28;19947;-80
2022/11/11 06:38:51;;;;;;;;;;;;;;;;;;4978358;28;20400;-79
2022/11/11 06:41:35;;;;;;;;;;;;;;;;;;4977430;28;19914;-79
2022/11/11 06:44:19;;;;;;;;;;;;;;;;;;4977996;28;19954;-80
2022/11/11 06:47:03;;;;;;;;;;;;;;;;;;4980478;28;19918;-80
2022/11/11 06:49:47;;;;;;;;;;;;;;;;;;4993044;28;19914;-79
2022/11/11 06:52:31;;;;;;;;;;;;;;;;;;4980861;28;19914;-79
2022/11/11 06:55:15;;;;;;;;;;;;;;;;;;4978666;28;19914;-80
2022/11/11 06:57:59;;;;;;;;;;;;;;;;;;4980431;28;19915;-79
2022/11/11 07:00:43;;;;;;;;;;;;;;;;;;4992568;28;19921;-79
2022/11/11 07:03:27;;;;;;;;;;;;;;;;;;4972901;28;19919;-79
2022/11/11 07:06:11;;;;;;;;;;;;;;;;;;4996343;23;19969;-90
2022/11/11 07:08:55;;;;;;;;;;;;;;;;;;4981151;28;19914;-92
2022/11/11 07:11:39;;;;;;;;;;;;;;;;;;4966596;28;19970;-91
2022/11/11 07:14:23;;;;;;;;;;;;;;;;;;4997659;28;19914;-91
2022/11/11 07:17:07;;;;;;;;;;;;;;;;;;4947115;28;20369;-93
2022/11/11 07:19:51;;;;;;;;;;;;;;;;;;4962105;28;19925;-92
2022/11/11 07:22:38;;;;;;;;;;;;;;;;;;4955812;29;19915;-92
2022/11/11 07:25:22;;;;;;;;;;;;;;;;;;4957586;29;20002;-93
2022/11/11 07:28:06;;;;;;;;;;;;;;;;;;4943355;29;19961;-91
2022/11/11 07:30:50;;;;;;;;;;;;;;;;;;4942738;29;19915;-92
2022/11/11 07:33:34;;;;;;;;;;;;;;;;;;4960483;29;19915;-92
2022/11/11 07:36:18;;;;;;;;;;;;;;;;;;4945936;29;19914;-92
2022/11/11 07:39:02;;;;;;;;;;;;;;;;;;4960123;28;20014;-91
2022/11/11 07:41:49;;;;;;;;;;;;;;;;;;4960415;28;20449;-92
2022/11/11 07:44:33;;;;;;;;;;;;;;;;;;4976242;28;19918;-91
2022/11/11 07:47:17;;;;;;;;;;;;;;;;;;4960764;28;19914;-92
2022/11/11 07:50:02;;;;;;;;;;;;;;;;;;4976027;28;20263;-91
2022/11/11 07:52:46;;;;;;;;;;;;;;;;;;4958441;28;19921;-91
2022/11/11 07:55:30;;;;;;;;;;;;;;;;;;4961175;28;19918;-92
2022/11/11 07:58:15;;;;;;;;;;;;;;;;;;4961339;28;19964;-92
2022/11/11 08:00:58;;;;;;;;;;;;;;;;;;4975059;28;19914;-94
2022/11/11 08:03:48;;;;;;;;;;;;;;;;;;4958798;28;19914;-91
2022/11/11 08:06:33;;;;;;;;;;;;;;;;;;4960689;28;19925;-91
2022/11/11 08:09:17;;;;;;;;;;;;;;;;;;4973896;28;19954;-92
2022/11/11 08:15:04;;;;;;;;;;;;;;;;;;4960656;28;19937;-92
2022/11/11 08:17:48;;;;;;;;;;;;;;;;;;4954440;28;19914;-90
2022/11/11 08:20:33;;;;;;;;;;;;;;;;;;4977214;28;19921;-87
2022/11/11 08:23:21;;;;;;;;;;;;;;;;;;4958731;28;19922;-87
2022/11/11 08:26:05;;;;;;;;;;;;;;;;;;4946738;28;19918;-86
2022/11/11 08:28:49;;;;;;;;;;;;;;;;;;4948739;28;19913;-91
2022/11/11 08:31:34;;;;;;;;;;;;;;;;;;4962030;28;19914;-92
2022/11/11 08:34:18;;;;;;;;;;;;;;;;;;4979368;28;19914;-91
2022/11/11 08:37:02;;;;;;;;;;;;;;;;;;4966279;28;19922;-90
2022/11/11 08:39:46;;;;;;;;;;;;;;;;;;4963786;28;19921;-91
2022/11/11 08:42:31;;;;;;;;;;;;;;;;;;4979015;28;19925;-92
2022/11/11 08:45:15;;;;;;;;;;;;;;;;;;4963413;28;20385;-89
2022/11/11 08:47:59;;;;;;;;;;;;;;;;;;4962577;28;19921;-91
2022/11/11 08:50:43;;;;;;;;;;;;;;;;;;4957326;29;19922;-92
2022/11/11 08:53:28;;;;;;;;;;;;;;;;;;4957173;28;19915;-93
2022/11/11 08:56:12;;;;;;;;;;;;;;;;;;4956443;28;19914;-92
2022/11/11 08:58:56;;;;;;;;;;;;;;;;;;4955992;28;19914;-92
2022/11/11 09:01:40;;;;;;;;;;;;;;;;;;4942484;29;19949;-91
2022/11/11 09:04:24;;;;;;;;;;;;;;;;;;4947738;29;19918;-92
2022/11/11 09:07:08;;;;;;;;;;;;;;;;;;4955743;29;19918;-92
2022/11/11 09:09:53;;;;;;;;;;;;;;;;;;4952369;29;19915;-92
2022/11/11 09:12:37;;;;;;;;;;;;;;;;;;4950484;29;19915;-91
2022/11/11 09:15:21;;;;;;;;;;;;;;;;;;4950685;29;19942;-91
2022/11/11 09:18:05;;;;;;;;;;;;;;;;;;4950701;29;20017;-90
2022/11/11 09:20:49;;;;;;;;;;;;;;;;;;4958997;29;19922;-92
2022/11/11 09:23:33;;;;;;;;;;;;;;;;;;4958484;28;19922;-91
2022/11/11 09:26:17;;;;;;;;;;;;;;;;;;4961210;28;19918;-92
2022/11/11 09:29:02;;;;;;;;;;;;;;;;;;4960540;28;19914;-92
2022/11/11 09:31:48;;;;;;;;;;;;;;;;;;4960853;28;20384;-90
2022/11/11 09:34:32;;;;;;;;;;;;;;;;;;4975831;28;19914;-91
2022/11/11 09:37:16;;;;;;;;;;;;;;;;;;4947775;28;20378;-92
2022/11/11 09:40:00;;;;;;;;;;;;;;;;;;4962527;28;20289;-91
2022/11/11 09:42:44;;;;;;;;;;;;;;;;;;4978754;28;19918;-92
2022/11/11 09:45:28;;;;;;;;;;;;;;;;;;4964033;28;19922;-91
2022/11/11 09:48:13;;;;;;;;;;;;;;;;;;4964898;28;19914;-90
2022/11/11 09:50:57;;;;;;;;;;;;;;;;;;4963164;28;19915;-91
2022/11/11 09:53:41;;;;;;;;;;;;;;;;;;4960538;28;20001;-92
2022/11/11 09:56:25;;;;;;;;;;;;;;;;;;4959254;28;20314;-89
2022/11/11 09:59:09;;;;;;;;;;;;;;;;;;4951300;29;19914;-90
2022/11/11 10:01:53;;;;;;;;;;;;;;;;;;4958733;28;19930;-90
2022/11/11 10:04:37;;;;;;;;;;;;;;;;;;4955498;29;19914;-92
2022/11/11 10:07:21;;;;;;;;;;;;;;;;;;4939067;29;19922;-90
2022/11/11 10:10:06;;;;;;;;;;;;;;;;;;4957367;28;20034;-90
2022/11/11 10:12:50;;;;;;;;;;;;;;;;;;4960068;29;19922;-91
2022/11/11 10:15:34;;;;;;;;;;;;;;;;;;4965343;28;20032;-91
2022/11/11 10:18:18;;;;;;;;;;;;;;;;;;4964183;28;19921;-90
2022/11/11 10:21:02;;;;;;;;;;;;;;;;;;4963358;28;19915;-90
2022/11/11 10:23:47;;;;;;;;;;;;;;;;;;4965195;28;19949;-92
2022/11/11 10:26:31;;;;;;;;;;;;;;;;;;4964916;28;19977;-91
2022/11/11 10:29:15;;;;;;;;;;;;;;;;;;4981759;28;19920;-91
2022/11/11 10:31:59;;;;;;;;;;;;;;;;;;4980055;28;19914;-89
2022/11/11 10:34:43;;;;;;;;;;;;;;;;;;4970696;28;19921;-90
2022/11/11 10:37:27;;;;;;;;;;;;;;;;;;4968337;28;19914;-89
2022/11/11 10:40:12;;;;;;;;;;;;;;;;;;4986239;28;19924;-89
2022/11/11 10:42:56;;;;;;;;;;;;;;;;;;4969747;28;19921;-87
2022/11/11 10:45:40;;;;;;;;;;;;;;;;;;4971555;28;19918;-91
2022/11/11 10:48:24;;;;;;;;;;;;;;;;;;4982081;28;20788;-90
2022/11/11 10:51:09;;;;;;;;;;;;;;;;;;4972664;28;19914;-89
2022/11/11 10:53:53;;;;;;;;;;;;;;;;;;4975569;28;20013;-91
2022/11/11 10:56:37;;;;;;;;;;;;;;;;;;4978866;28;19921;-89
2022/11/11 10:59:21;;;;;;;;;;;;;;;;;;4964043;28;19961;-81
2022/11/11 11:02:08;;;;;;;;;;;;;;;;;;4946339;28;19914;-78
2022/11/11 11:04:52;;;;;;;;;;;;;;;;;;4947444;28;19926;-81
2022/11/11 11:07:38;;;;;;;;;;;;;;;;;;4959326;28;20381;-82
2022/11/11 11:10:22;;;;;;;;;;;;;;;;;;4951800;28;19915;-88
2022/11/11 11:13:06;;;;;;;;;;;;;;;;;;4965785;28;19960;-90
2022/11/11 11:15:51;;;;;;;;;;;;;;;;;;4963449;28;19918;-90
2022/11/11 11:18:35;;;;;;;;;;;;;;;;;;4964802;28;19914;-87
2022/11/11 11:21:19;;;;;;;;;;;;;;;;;;4964179;28;19928;-87
2022/11/11 11:24:03;;;;;;;;;;;;;;;;;;4965518;28;19914;-91
2022/11/11 11:26:48;;;;;;;;;;;;;;;;;;4962922;28;19918;-88
2022/11/11 11:29:32;;;;;;;;;;;;;;;;;;4981454;28;19926;-89
2022/11/11 11:32:17;;;;;;;;;;;;;;;;;;4967634;28;19977;-89
2022/11/11 11:35:01;;;;;;;;;;;;;;;;;;4983656;28;20453;-90
2022/11/11 11:37:45;;;;;;;;;;;;;;;;;;4979728;28;19980;-88
2022/11/11 11:40:29;;;;;;;;;;;;;;;;;;4965381;28;19922;-87
2022/11/11 11:43:13;;;;;;;;;;;;;;;;;;4979918;28;19944;-88
2022/11/11 11:45:58;;;;;;;;;;;;;;;;;;4981150;28;19925;-88
2022/11/11 11:48:42;;;;;;;;;;;;;;;;;;4970880;28;19914;-88
2022/11/11 11:51:26;;;;;;;;;;;;;;;;;;4966550;28;19914;-88
2022/11/11 11:54:10;;;;;;;;;;;;;;;;;;4965406;28;19925;-89
2022/11/11 11:56:54;;;;;;;;;;;;;;;;;;4964879;28;19918;-88
2022/11/11 11:59:38;;;;;;;;;;;;;;;;;;4980922;28;20354;-88
2022/11/11 12:02:22;;;;;;;;;;;;;;;;;;4979023;28;19921;-88
2022/11/11 12:05:06;;;;;;;;;;;;;;;;;;4961273;28;20001;-88
2022/11/11 12:07:50;;;;;;;;;;;;;;;;;;4962231;28;20444;-88
2022/11/11 12:10:35;;;;;;;;;;;;;;;;;;4979366;28;19914;-90
2022/11/11 12:13:19;;;;;;;;;;;;;;;;;;4959605;28;20374;-88
2022/11/11 12:16:03;;;;;;;;;;;;;;;;;;4960022;28;19921;-90
2022/11/11 12:18:47;;;;;;;;;;;;;;;;;;4976359;28;19914;-88
2022/11/11 12:21:31;;;;;;;;;;;;;;;;;;4961742;28;20411;-88
2022/11/11 12:24:15;;;;;;;;;;;;;;;;;;4961262;28;19920;-88
2022/11/11 12:26:59;;;;;;;;;;;;;;;;;;4976171;28;19924;-85
2022/11/11 12:29:43;;;;;;;;;;;;;;;;;;4961545;28;19914;-87
2022/11/11 12:32:27;;;;;;;;;;;;;;;;;;4959027;28;19914;-87
2022/11/11 12:35:12;;;;;;;;;;;;;;;;;;4976816;28;19914;-85
2022/11/11 12:37:56;;;;;;;;;;;;;;;;;;4961491;28;20052;-86
2022/11/11 12:40:40;;;;;;;;;;;;;;;;;;4960747;28;19991;-88
2022/11/11 12:43:25;;;;;;;;;;;;;;;;;;4962069;28;19922;-87
2022/11/11 12:46:09;;;;;;;;;;;;;;;;;;4980945;28;19922;-87
2022/11/11 12:48:53;;;;;;;;;;;;;;;;;;4964684;28;19914;-87
2022/11/11 12:51:37;;;;;;;;;;;;;;;;;;4961434;28;19961;-86
2022/11/11 12:54:21;;;;;;;;;;;;;;;;;;4978364;28;20008;-88
2022/11/11 12:57:05;;;;;;;;;;;;;;;;;;4962587;28;19914;-88
2022/11/11 12:59:49;;;;;;;;;;;;;;;;;;4978202;28;19914;-88
2022/11/11 13:02:33;;;;;;;;;;;;;;;;;;4963134;28;19918;-88
2022/11/11 13:05:17;;;;;;;;;;;;;;;;;;4976684;23;19913;-82
2022/11/11 13:08:01;;;;;;;;;;;;;;;;;;4977122;28;20005;-82
2022/11/11 13:10:46;;;;;;;;;;;;;;;;;;4979725;28;19914;-81
2022/11/11 13:13:30;;;;;;;;;;;;;;;;;;4979576;28;19965;-81
2022/11/11 13:16:14;;;;;;;;;;;;;;;;;;4976619;28;19918;-82
2022/11/11 13:18:58;;;;;;;;;;;;;;;;;;4993436;28;19921;-82
2022/11/11 13:21:42;;;;;;;;;;;;;;;;;;4992985;28;20004;-81
2022/11/11 13:24:27;;;;;;;;;;;;;;;;;;4977855;28;20373;-81
2022/11/11 13:27:10;;;;;;;;;;;;;;;;;;4992700;28;19925;-81
2022/11/11 13:29:54;;;;;;;;;;;;;;;;;;4976083;28;20348;-82
2022/11/11 13:32:38;;;;;;;;;;;;;;;;;;4975298;28;19913;-81
2022/11/11 13:35:22;;;;;;;;;;;;;;;;;;4978084;28;20000;-81
2022/11/11 13:38:07;;;;;;;;;;;;;;;;;;4989724;23;19926;-86
2022/11/11 13:40:50;;;;;;;;;;;;;;;;;;4973644;28;19921;-84
2022/11/11 13:43:35;;;;;;;;;;;;;;;;;;4958795;28;20373;-83
2022/11/11 13:46:19;;;;;;;;;;;;;;;;;;4973483;28;19929;-84
2022/11/11 13:49:03;;;;;;;;;;;;;;;;;;4972709;28;19921;-86
2022/11/11 13:51:47;;;;;;;;;;;;;;;;;;4973872;28;19921;-86
2022/11/11 13:54:31;;;;;;;;;;;;;;;;;;4972912;28;20362;-87
2022/11/11 13:57:15;;;;;;;;;;;;;;;;;;4973789;28;19914;-84
2022/11/11 13:59:59;;;;;;;;;;;;;;;;;;4973543;28;19918;-87
2022/11/11 14:02:43;;;;;;;;;;;;;;;;;;4974052;28;19914;-84
2022/11/11 14:05:27;;;;;;;;;;;;;;;;;;4976099;28;20341;-84
2022/11/11 14:08:11;;;;;;;;;;;;;;;;;;4974977;28;19961;-84
2022/11/11 14:10:55;;;;;;;;;;;;;;;;;;4975834;28;19914;-83
2022/11/11 14:13:39;;;;;;;;;;;;;;;;;;4981485;28;19918;-82
2022/11/11 14:16:23;;;;;;;;;;;;;;;;;;4981532;28;19914;-81
2022/11/11 14:19:07;;;;;;;;;;;;;;;;;;4977843;28;19914;-83
2022/11/11 14:21:53;;;;;;;;;;;;;;;;;;4979108;28;19915;-82
2022/11/11 14:24:37;;;;;;;;;;;;;;;;;;4975007;28;19918;-83
2022/11/11 14:27:21;;;;;;;;;;;;;;;;;;4973734;28;20024;-84
2022/11/11 14:30:05;;;;;;;;;;;;;;;;;;4973508;28;19914;-85
2022/11/11 14:32:49;;;;;;;;;;;;;;;;;;4976560;28;19921;-81
2022/11/11 14:35:33;;;;;;;;;;;;;;;;;;4980219;28;19969;-83
2022/11/11 14:38:17;;;;;;;;;;;;;;;;;;4980868;28;19918;-81
2022/11/11 14:41:01;;;;;;;;;;;;;;;;;;4979333;28;19961;-82
2022/11/11 14:43:45;;;;;;;;;;;;;;;;;;4975334;28;19914;-83
2022/11/11 14:46:29;;;;;;;;;;;;;;;;;;4972511;28;19928;-84
2022/11/11 14:49:14;;;;;;;;;;;;;;;;;;4958990;28;20290;-84
2022/11/11 14:51:58;;;;;;;;;;;;;;;;;;4959099;28;19914;-83
2022/11/11 14:54:42;;;;;;;;;;;;;;;;;;4973893;28;19914;-82
2022/11/11 14:57:26;;;;;;;;;;;;;;;;;;4978561;28;19965;-83
2022/11/11 15:00:11;;;;;;;;;;;;;;;;;;4981114;28;19914;-84
2022/11/11 15:02:55;;;;;;;;;;;;;;;;;;4967186;28;19921;-82
2022/11/11 15:05:39;;;;;;;;;;;;;;;;;;4981950;28;19928;-82
2022/11/11 15:08:23;;;;;;;;;;;;;;;;;;4981879;28;19946;-82
2022/11/11 15:11:07;;;;;;;;;;;;;;;;;;4979940;28;19959;-79
2022/11/11 15:13:51;;;;;;;;;;;;;;;;;;4978892;28;20386;-84
2022/11/11 15:16:35;;;;;;;;;;;;;;;;;;4981041;28;20119;-81
2022/11/11 15:19:20;;;;;;;;;;;;;;;;;;4967561;28;19914;-82
2022/11/11 15:22:04;;;;;;;;;;;;;;;;;;4983677;28;19973;-82
2022/11/11 15:24:48;;;;;;;;;;;;;;;;;;4984466;28;19921;-82
2022/11/11 15:27:32;;;;;;;;;;;;;;;;;;4985574;28;19998;-81
2022/11/11 15:30:16;;;;;;;;;;;;;;;;;;4982894;28;20106;-81
2022/11/11 15:33:00;;;;;;;;;;;;;;;;;;4982307;28;19977;-82
2022/11/11 15:35:44;;;;;;;;;;;;;;;;;;4982441;28;19993;-80
2022/11/11 15:38:29;;;;;;;;;;;;;;;;;;4983761;28;19922;-82
2022/11/11 15:41:13;;;;;;;;;;;;;;;;;;4983889;28;19921;-81
2022/11/11 15:43:57;;;;;;;;;;;;;;;;;;4984519;28;19914;-81
2022/11/11 15:46:41;;;;;;;;;;;;;;;;;;4981953;28;19940;-83
2022/11/11 15:49:25;;;;;;;;;;;;;;;;;;4981384;28;19964;-84
2022/11/11 15:52:09;;;;;;;;;;;;;;;;;;4975896;28;20158;-86
2022/11/11 15:54:53;;;;;;;;;;;;;;;;;;4976060;28;20465;-83
2022/11/11 15:57:38;;;;;;;;;;;;;;;;;;4975698;28;19922;-83
2022/11/11 16:00:21;;;;;;;;;;;;;;;;;;4975588;28;19925;-86
2022/11/11 16:03:06;;;;;;;;;;;;;;;;;;4975748;28;19937;-84
2022/11/11 16:05:49;;;;;;;;;;;;;;;;;;4975739;28;19957;-89
2022/11/11 16:08:34;;;;;;;;;;;;;;;;;;4975194;28;20400;-87
2022/11/11 16:11:18;;;;;;;;;;;;;;;;;;4975641;28;19985;-88
2022/11/11 16:14:02;;;;;;;;;;;;;;;;;;4975746;28;19979;-85
2022/11/11 16:16:46;;;;;;;;;;;;;;;;;;4974820;28;19914;-88
2022/11/11 16:19:30;;;;;;;;;;;;;;;;;;4961861;28;20016;-88
2022/11/11 16:22:14;;;;;;;;;;;;;;;;;;4976427;28;20004;-88
2022/11/11 16:24:58;;;;;;;;;;;;;;;;;;4975666;28;19914;-88
2022/11/11 16:27:42;;;;;;;;;;;;;;;;;;4974979;28;19924;-87
2022/11/11 16:30:26;;;;;;;;;;;;;;;;;;4975015;28;19925;-89
2022/11/11 16:33:11;;;;;;;;;;;;;;;;;;4983804;28;19918;-88
2022/11/11 16:35:55;;;;;;;;;;;;;;;;;;4982932;28;20049;-86
2022/11/11 16:38:39;;;;;;;;;;;;;;;;;;4977916;28;19929;-88
2022/11/11 16:41:23;;;;;;;;;;;;;;;;;;4977239;28;19914;-88
2022/11/11 16:44:07;;;;;;;;;;;;;;;;;;4977026;28;19950;-82
2022/11/11 16:46:51;;;;;;;;;;;;;;;;;;4978743;28;19925;-85
2022/11/11 16:49:35;;;;;;;;;;;;;;;;;;4978264;28;19920;-89
2022/11/11 16:52:19;;;;;;;;;;;;;;;;;;4965032;28;19922;-90
2022/11/11 16:55:03;;;;;;;;;;;;;;;;;;4976649;28;19914;-91
2022/11/11 16:57:50;;;;;;;;;;;;;;;;;;4974850;28;19918;-90
2022/11/11 17:00:34;;;;;;;;;;;;;;;;;;4966903;28;19985;-89
2022/11/11 17:03:21;;;;;;;;;;;;;;;;;;4956404;28;19914;-90
2022/11/11 17:06:07;;;;;;;;;;;;;;;;;;4956475;28;19970;-90
2022/11/11 17:08:51;;;;;;;;;;;;;;;;;;4957818;28;19914;-89
2022/11/11 17:11:35;;;;;;;;;;;;;;;;;;4960382;28;20330;-86
2022/11/11 17:14:19;;;;;;;;;;;;;;;;;;4959154;28;19919;-85
2022/11/11 17:17:03;;;;;;;;;;;;;;;;;;4966920;28;19961;-85
2022/11/11 17:19:48;;;;;;;;;;;;;;;;;;4978126;28;19915;-86
2022/11/11 17:22:32;;;;;;;;;;;;;;;;;;4966068;28;19989;-82
2022/11/11 17:25:16;;;;;;;;;;;;;;;;;;4985895;28;20378;-82
2022/11/11 17:28:01;;;;;;;;;;;;;;;;;;4982188;28;19921;-82
2022/11/11 17:30:44;;;;;;;;;;;;;;;;;;4965939;28;19921;-81
2022/11/11 17:33:29;;;;;;;;;;;;;;;;;;4973158;28;20425;-82
2022/11/11 17:36:13;;;;;;;;;;;;;;;;;;4989621;28;19914;-81
2022/11/11 17:38:57;;;;;;;;;;;;;;;;;;4988018;28;19941;-82
2022/11/11 17:41:41;;;;;;;;;;;;;;;;;;4992103;28;19914;-83
2022/11/11 17:44:25;;;;;;;;;;;;;;;;;;4990135;28;19925;-82
2022/11/11 17:47:09;;;;;;;;;;;;;;;;;;4989895;28;19922;-82
2022/11/11 17:49:53;;;;;;;;;;;;;;;;;;4988275;28;19914;-82
2022/11/11 17:52:37;;;;;;;;;;;;;;;;;;4987112;28;19914;-82
2022/11/11 17:55:21;;;;;;;;;;;;;;;;;;4986613;28;19921;-82
2022/11/11 17:58:05;;;;;;;;;;;;;;;;;;4987368;28;19914;-82
2022/11/11 18:00:49;;;;;;;;;;;;;;;;;;4987082;28;19918;-82
2022/11/11 18:03:33;;;;;;;;;;;;;;;;;;4985717;28;19964;-81
2022/11/11 18:06:18;;;;;;;;;;;;;;;;;;4965436;29;20390;-83
2022/11/11 18:09:02;;;;;;;;;;;;;;;;;;4971875;28;19914;-83
2022/11/11 18:11:46;;;;;;;;;;;;;;;;;;4972144;28;19977;-82
2022/11/11 18:14:30;;;;;;;;;;;;;;;;;;4970674;28;19921;-83
2022/11/11 18:17:14;;;;;;;;;;;;;;;;;;4952787;29;19921;-83
2022/11/11 18:19:59;;;;;;;;;;;;;;;;;;4966830;28;19921;-82
2022/11/11 18:22:43;;;;;;;;;;;;;;;;;;4966003;29;20009;-81
2022/11/11 18:25:29;;;;;;;;;;;;;;;;;;4976243;28;19918;-81
2022/11/11 18:28:13;;;;;;;;;;;;;;;;;;4965441;28;19937;-82
2022/11/11 18:30:57;;;;;;;;;;;;;;;;;;4966371;28;20005;-82
2022/11/11 18:33:44;;;;;;;;;;;;;;;;;;4968942;28;19915;-82
2022/11/11 18:36:28;;;;;;;;;;;;;;;;;;4957363;29;20327;-82
2022/11/11 18:39:12;;;;;;;;;;;;;;;;;;4972261;28;19918;-82
2022/11/11 18:41:56;;;;;;;;;;;;;;;;;;4967196;28;19914;-82
2022/11/11 18:44:40;;;;;;;;;;;;;;;;;;4963018;29;19914;-82
2022/11/11 18:47:27;;;;;;;;;;;;;;;;;;4950661;29;19929;-82
2022/11/11 18:50:11;;;;;;;;;;;;;;;;;;4964687;28;19946;-82
2022/11/11 18:52:55;;;;;;;;;;;;;;;;;;4964030;29;19993;-82
2022/11/11 18:55:39;;;;;;;;;;;;;;;;;;4968019;28;19921;-82
2022/11/11 18:58:23;;;;;;;;;;;;;;;;;;4969593;28;19914;-82
2022/11/11 19:01:07;;;;;;;;;;;;;;;;;;4982113;28;19961;-81
2022/11/11 19:03:51;;;;;;;;;;;;;;;;;;4983507;28;20358;-82
2022/11/11 19:06:37;;;;;;;;;;;;;;;;;;5004976;23;20385;-89
2022/11/11 19:09:21;;;;;;;;;;;;;;;;;;5004554;28;19914;-90
2022/11/11 19:12:05;;;;;;;;;;;;;;;;;;4984463;28;19914;-89
2022/11/11 19:14:49;;;;;;;;;;;;;;;;;;4970785;28;19957;-91
2022/11/11 19:17:33;;;;;;;;;;;;;;;;;;4982534;28;20263;-88
2022/11/11 19:20:18;;;;;;;;;;;;;;;;;;4970381;28;19913;-91
2022/11/11 19:23:02;;;;;;;;;;;;;;;;;;4986447;28;19925;-91
2022/11/11 19:25:46;;;;;;;;;;;;;;;;;;4982815;28;20290;-90
2022/11/11 19:28:30;;;;;;;;;;;;;;;;;;4984453;28;19914;-89
2022/11/11 19:31:14;;;;;;;;;;;;;;;;;;4965882;28;19918;-91
2022/11/11 19:33:59;;;;;;;;;;;;;;;;;;4964462;28;19921;-90
2022/11/11 19:36:43;;;;;;;;;;;;;;;;;;4967567;28;19937;-90
2022/11/11 19:39:27;;;;;;;;;;;;;;;;;;4964687;28;19921;-91
2022/11/11 19:42:11;;;;;;;;;;;;;;;;;;4966234;28;19922;-91
2022/11/11 19:44:56;;;;;;;;;;;;;;;;;;4966563;28;19989;-89
2022/11/11 19:47:40;;;;;;;;;;;;;;;;;;4962239;28;19953;-90
2022/11/11 19:50:24;;;;;;;;;;;;;;;;;;4964507;28;19921;-91
2022/11/11 19:53:08;;;;;;;;;;;;;;;;;;4964188;28;19918;-91
2022/11/11 19:55:52;;;;;;;;;;;;;;;;;;4950564;28;19958;-89